MSC Clorinda — 3FDW7 — position and weather

sailwx.info

Track history (hours):
 
Tides and Currents Weather Stations Pressure Air Temp Water Temp Dewpoint Dewpoint Depression Visibility Wind Speed Wind Dir Waves Ship Positions

MSC Clorinda

Last reported at 2014-Jul-22 01:24 UTC. Time now 2014-Jul-22 07:18 UTC.
Position N 22°38' E 113°41'.

Length 366 m; draft 14 m.

Type: Ship (hazmat cat A). MMSI: 373233000.

Date/timePositionNaut miles runAvg speedWind from/ knotsBaromVisibWave heightAir tempDewpointWater temp
2014-Jul-22 01:24N 22°38' E 113°41'5 2.6
2014-Jul-21 23:28N 22°34' E 113°43'1314.7
2014-Jul-21 22:33N 22°21' E 113°48'1110.9
2014-Jul-21 21:33N 22°10' E 113°50'8 7.7
2014-Jul-21 20:32N 22°03' E 113°51'1 6.1
2014-Jul-21 20:18N 22°01' E 113°51'5 6.5
2014-Jul-21 19:27N 21°56' E 113°52'  
2014-Jul-17 06:33N 01°14' E 103°58'1010.3
2014-Jul-17 05:34N 01°13' E 103°48'4 1.0
2014-Jul-17 01:26N 01°16' E 103°46'0 0.0
2014-Jul-16 22:32N 01°16' E 103°46'0 0.0
2014-Jul-16 21:32N 01°16' E 103°46'0 0.0
2014-Jul-16 18:26N 01°16' E 103°46'0 0.0
2014-Jul-16 17:26N 01°16' E 103°46'0 0.0
2014-Jul-16 16:26N 01°16' E 103°46'0 0.0
2014-Jul-16 15:32N 01°16' E 103°46'0 0.0
2014-Jul-16 14:32N 01°16' E 103°46'0 0.0
2014-Jul-16 13:20N 01°16' E 103°46'0 0.0
2014-Jul-16 12:20N 01°16' E 103°46'0 0.0
2014-Jul-16 08:32N 01°16' E 103°46'0 0.0
2014-Jul-16 07:32N 01°16' E 103°46'0 0.0
2014-Jul-16 06:26N 01°16' E 103°46'0 0.0
2014-Jul-16 03:26N 01°16' E 103°46'0 0.0
2014-Jul-16 02:32N 01°16' E 103°46'0 0.0
2014-Jul-16 01:32N 01°16' E 103°46'0 0.0
2014-Jul-16 00:20N 01°16' E 103°46'0 0.0
2014-Jul-15 23:14N 01°16' E 103°46'0 0.0
2014-Jul-15 22:08N 01°16' E 103°46'0 0.0
2014-Jul-15 21:32N 01°16' E 103°46'0 0.0
2014-Jul-15 20:32N 01°16' E 103°46'0 0.0
2014-Jul-15 17:32N 01°16' E 103°46'0 0.0
2014-Jul-15 16:32N 01°16' E 103°46'0 0.0
2014-Jul-15 15:20N 01°16' E 103°46'0 0.0
2014-Jul-15 14:29N 01°16' E 103°46'0 0.0
2014-Jul-15 13:32N 01°16' E 103°46'0 0.0
2014-Jul-15 12:08N 01°16' E 103°46'0 0.0
2014-Jul-15 11:32N 01°16' E 103°46'0 0.0
2014-Jul-15 10:32N 01°16' E 103°46'0 0.0
2014-Jul-15 08:26N 01°16' E 103°46'0 0.0
2014-Jul-15 07:14N 01°16' E 103°46'0 0.0
2014-Jul-15 06:32N 01°16' E 103°46'0 0.0
2014-Jul-15 05:29N 01°16' E 103°46'0 0.0
2014-Jul-15 02:27N 01°16' E 103°46'5 5.1
2014-Jul-15 01:33N 01°13' E 103°49'5 4.2
2014-Jul-15 00:24N 01°14' E 103°53'0 0.0
2014-Jul-14 23:33N 01°14' E 103°53'0 0.1
2014-Jul-14 22:27N 01°14' E 103°53'0 0.1
2014-Jul-14 21:33N 01°14' E 103°53'0 0.1
2014-Jul-14 20:27N 01°14' E 103°53'0 0.0
2014-Jul-14 19:33N 01°14' E 103°53'0 0.1
2014-Jul-14 18:33N 01°14' E 103°53'0 0.1
2014-Jul-14 17:33N 01°14' E 103°53'0 0.0
2014-Jul-14 16:33N 01°14' E 103°53'0 0.1
2014-Jul-14 15:33N 01°14' E 103°53'0 0.0
2014-Jul-14 14:33N 01°14' E 103°53'0 0.1
2014-Jul-14 13:30N 01°14' E 103°53'0 0.0
2014-Jul-14 12:30N 01°14' E 103°53'0 0.0
2014-Jul-14 11:33N 01°14' E 103°53'0 0.0
2014-Jul-14 10:33N 01°14' E 103°53'0 0.0
2014-Jul-14 09:33N 01°14' E 103°53'0 0.1
2014-Jul-14 08:33N 01°14' E 103°53'0 0.0
2014-Jul-14 07:33N 01°14' E 103°53'0 0.0
2014-Jul-14 06:27N 01°14' E 103°53'0 0.0
2014-Jul-14 05:33N 01°14' E 103°53'0 0.0
2014-Jul-14 04:33N 01°14' E 103°53'0 0.1
2014-Jul-14 03:33N 01°14' E 103°53'  
Track history (hours):
 
Tides and Currents Weather Stations Pressure Air Temp Water Temp Dewpoint Dewpoint Depression Visibility Wind Speed Wind Dir Waves Ship Positions

MSC Clorinda

Last reported at 2014-Jul-22 01:24 UTC. Time now 2014-Jul-22 07:18 UTC.
Position N 22°38' E 113°41'.

Length 366 m; draft 14 m.

Type: Ship (hazmat cat A). MMSI: 373233000.

Date/timePositionNaut miles runAvg speedWind from/ knotsBaromVisibWave heightAir tempDewpointWater temp
2014-Jul-22 01:24N 22°38' E 113°41'5 2.6
2014-Jul-21 23:28N 22°34' E 113°43'1314.7
2014-Jul-21 22:33N 22°21' E 113°48'1110.9
2014-Jul-21 21:33N 22°10' E 113°50'8 7.7
2014-Jul-21 20:32N 22°03' E 113°51'1 6.1
2014-Jul-21 20:18N 22°01' E 113°51'5 6.5
2014-Jul-21 19:27N 21°56' E 113°52'  
2014-Jul-17 06:33N 01°14' E 103°58'1010.3
2014-Jul-17 05:34N 01°13' E 103°48'4 1.0
2014-Jul-17 01:26N 01°16' E 103°46'0 0.0
2014-Jul-16 22:32N 01°16' E 103°46'0 0.0
2014-Jul-16 21:32N 01°16' E 103°46'0 0.0
2014-Jul-16 18:26N 01°16' E 103°46'0 0.0
2014-Jul-16 17:26N 01°16' E 103°46'0 0.0
2014-Jul-16 16:26N 01°16' E 103°46'0 0.0
2014-Jul-16 15:32N 01°16' E 103°46'0 0.0
2014-Jul-16 14:32N 01°16' E 103°46'0 0.0
2014-Jul-16 13:20N 01°16' E 103°46'0 0.0
2014-Jul-16 12:20N 01°16' E 103°46'0 0.0
2014-Jul-16 08:32N 01°16' E 103°46'0 0.0
2014-Jul-16 07:32N 01°16' E 103°46'0 0.0
2014-Jul-16 06:26N 01°16' E 103°46'0 0.0
2014-Jul-16 03:26N 01°16' E 103°46'0 0.0
2014-Jul-16 02:32N 01°16' E 103°46'0 0.0
2014-Jul-16 01:32N 01°16' E 103°46'0 0.0
2014-Jul-16 00:20N 01°16' E 103°46'0 0.0
2014-Jul-15 23:14N 01°16' E 103°46'0 0.0
2014-Jul-15 22:08N 01°16' E 103°46'0 0.0
2014-Jul-15 21:32N 01°16' E 103°46'0 0.0
2014-Jul-15 20:32N 01°16' E 103°46'0 0.0
2014-Jul-15 17:32N 01°16' E 103°46'0 0.0
2014-Jul-15 16:32N 01°16' E 103°46'0 0.0
2014-Jul-15 15:20N 01°16' E 103°46'0 0.0
2014-Jul-15 14:29N 01°16' E 103°46'0 0.0
2014-Jul-15 13:32N 01°16' E 103°46'0 0.0
2014-Jul-15 12:08N 01°16' E 103°46'0 0.0
2014-Jul-15 11:32N 01°16' E 103°46'0 0.0
2014-Jul-15 10:32N 01°16' E 103°46'0 0.0
2014-Jul-15 08:26N 01°16' E 103°46'0 0.0
2014-Jul-15 07:14N 01°16' E 103°46'0 0.0
2014-Jul-15 06:32N 01°16' E 103°46'0 0.0
2014-Jul-15 05:29N 01°16' E 103°46'0 0.0
2014-Jul-15 02:27N 01°16' E 103°46'5 5.1
2014-Jul-15 01:33N 01°13' E 103°49'5 4.2
2014-Jul-15 00:24N 01°14' E 103°53'0 0.0
2014-Jul-14 23:33N 01°14' E 103°53'0 0.1
2014-Jul-14 22:27N 01°14' E 103°53'0 0.1
2014-Jul-14 21:33N 01°14' E 103°53'0 0.1
2014-Jul-14 20:27N 01°14' E 103°53'0 0.0
2014-Jul-14 19:33N 01°14' E 103°53'0 0.1
2014-Jul-14 18:33N 01°14' E 103°53'0 0.1
2014-Jul-14 17:33N 01°14' E 103°53'0 0.0
2014-Jul-14 16:33N 01°14' E 103°53'0 0.1
2014-Jul-14 15:33N 01°14' E 103°53'0 0.0
2014-Jul-14 14:33N 01°14' E 103°53'0 0.1
2014-Jul-14 13:30N 01°14' E 103°53'0 0.0
2014-Jul-14 12:30N 01°14' E 103°53'0 0.0
2014-Jul-14 11:33N 01°14' E 103°53'0 0.0
2014-Jul-14 10:33N 01°14' E 103°53'0 0.0
2014-Jul-14 09:33N 01°14' E 103°53'0 0.1
2014-Jul-14 08:33N 01°14' E 103°53'0 0.0
2014-Jul-14 07:33N 01°14' E 103°53'0 0.0
2014-Jul-14 06:27N 01°14' E 103°53'0 0.0
2014-Jul-14 05:33N 01°14' E 103°53'0 0.0
2014-Jul-14 04:33N 01°14' E 103°53'0 0.1
2014-Jul-14 03:33N 01°14' E 103°53'  

Dump ship's entire track history